Time;durP1;ratioP1;P1;durP2;ratioP2;P2;SDS_P1;SDS_P2;PMS_P1;PMS_P2;Temp;Humidity;BMP_temperature;BMP_pressure;BME280_temperature;BME280_humidity;BME280_pressure;Samples;Min_cycle;Max_cycle;Signal;HPM_P1;HPM_P2
2022/01/08 00:00:08;;;;;;;3.20;1.83;;;17.00;55.20;;;;;;4933998;29;20031;-85
2022/01/08 00:02:34;;;;;;;4.18;1.70;;;16.90;55.20;;;;;;4935298;29;20175;-86
2022/01/08 00:05:00;;;;;;;2.42;1.38;;;16.90;55.20;;;;;;4933208;29;20032;-86
2022/01/08 00:07:27;;;;;;;3.28;1.60;;;16.90;55.20;;;;;;4932624;29;20127;-85
2022/01/08 00:09:53;;;;;;;4.00;1.90;;;16.90;55.20;;;;;;4930978;29;20032;-85
2022/01/08 00:12:18;;;;;;;4.20;1.98;;;16.90;55.30;;;;;;4931355;29;20036;-86
2022/01/08 00:14:44;;;;;;;5.35;1.90;;;16.80;55.20;;;;;;4932605;29;20028;-85
2022/01/08 00:17:12;;;;;;;4.60;1.80;;;16.90;55.20;;;;;;4932753;29;20020;-85
2022/01/08 00:19:38;;;;;;;3.85;1.55;;;16.90;55.20;;;;;;4934946;29;20028;-85
2022/01/08 00:22:04;;;;;;;2.95;1.70;;;16.80;55.10;;;;;;4933270;29;20031;-85
2022/01/08 00:24:30;;;;;;;4.38;1.85;;;16.80;55.10;;;;;;4932244;29;20027;-85
2022/01/08 00:26:55;;;;;;;3.03;1.70;;;16.80;55.10;;;;;;4930911;29;20130;-85
2022/01/08 00:29:21;;;;;;;3.75;1.90;;;16.80;55.10;;;;;;4930293;29;20100;-85
2022/01/08 00:31:46;;;;;;;3.47;1.88;;;16.80;55.10;;;;;;4930032;29;20043;-85
2022/01/08 00:34:12;;;;;;;2.60;1.60;;;16.80;56.10;;;;;;4930225;29;20020;-85
2022/01/08 00:36:38;;;;;;;3.63;1.65;;;16.80;55.00;;;;;;4930427;29;20475;-85
2022/01/08 00:39:04;;;;;;;4.00;1.77;;;16.70;55.00;;;;;;4930095;29;20035;-85
2022/01/08 00:41:31;;;;;;;3.10;1.60;;;16.70;54.90;;;;;;4930371;29;20458;-85
2022/01/08 00:43:56;;;;;;;3.35;1.70;;;16.70;55.90;;;;;;4929553;29;20055;-85
2022/01/08 00:46:22;;;;;;;3.50;1.50;;;16.70;54.90;;;;;;4928972;29;20040;-85
2022/01/08 00:48:48;;;;;;;3.70;1.67;;;16.70;54.90;;;;;;4929287;29;20429;-85
2022/01/08 00:51:14;;;;;;;2.80;1.60;;;16.70;54.90;;;;;;4929014;29;20526;-85
2022/01/08 00:53:40;;;;;;;3.13;1.60;;;16.70;54.90;;;;;;4928789;29;20024;-85
2022/01/08 00:56:06;;;;;;;2.33;1.40;;;16.70;54.80;;;;;;4928585;29;20028;-85
2022/01/08 00:58:32;;;;;;;3.30;1.60;;;16.70;54.80;;;;;;4928829;29;20027;-85
2022/01/08 01:00:58;;;;;;;3.30;1.48;;;16.70;54.80;;;;;;4929504;29;20083;-85
2022/01/08 01:03:23;;;;;;;3.42;1.55;;;16.70;54.60;;;;;;4929602;29;20483;-86
2022/01/08 01:05:49;;;;;;;3.78;1.67;;;16.70;54.70;;;;;;4929518;29;20115;-85
2022/01/08 01:08:15;;;;;;;3.63;1.60;;;16.70;54.60;;;;;;4929140;29;20043;-85
2022/01/08 01:10:40;;;;;;;3.17;1.65;;;16.70;54.70;;;;;;4930232;29;20042;-85
2022/01/08 01:13:07;;;;;;;3.20;1.70;;;16.70;54.80;;;;;;4929841;29;20035;-85
2022/01/08 01:15:33;;;;;;;3.45;1.60;;;16.70;54.90;;;;;;4929866;29;20114;-85
2022/01/08 01:17:59;;;;;;;3.47;1.90;;;16.70;54.80;;;;;;4929889;29;20602;-85
2022/01/08 01:20:25;;;;;;;2.80;1.70;;;16.70;54.80;;;;;;4930236;29;20051;-85
2022/01/08 01:23:05;;;;;;;2.85;1.55;;;16.80;54.80;;;;;;4930656;29;20031;-85
2022/01/08 01:25:39;;;;;;;2.97;1.67;;;16.80;54.80;;;;;;4931691;29;20032;-86
2022/01/08 01:28:18;;;;;;;2.33;1.52;;;16.80;54.80;;;;;;4930829;29;20487;-85
2022/01/08 01:41:44;;;;;;;2.67;1.50;;;16.80;54.30;;;;;;4929933;29;20047;-85
2022/01/08 01:47:03;;;;;;;3.10;1.60;;;16.80;54.20;;;;;;4931429;29;20717;-86
2022/01/08 01:49:41;;;;;;;3.28;1.50;;;16.80;54.10;;;;;;4931365;29;20487;-85
2022/01/08 01:52:08;;;;;;;3.92;1.67;;;16.80;54.00;;;;;;4932224;29;20043;-85
2022/01/08 01:54:36;;;;;;;3.17;1.50;;;16.80;54.00;;;;;;4932881;29;20031;-86
2022/01/08 01:57:06;;;;;;;3.17;1.70;;;16.90;54.00;;;;;;4932310;29;20028;-86
2022/01/08 01:59:34;;;;;;;2.85;1.45;;;16.80;53.90;;;;;;4933001;29;20028;-85
2022/01/08 02:02:05;;;;;;;4.00;1.35;;;16.80;53.80;;;;;;4933109;29;20032;-85
2022/01/08 02:04:31;;;;;;;2.28;1.20;;;16.90;53.70;;;;;;4933028;29;20098;-86
2022/01/08 02:06:57;;;;;;;3.55;2.13;;;16.90;54.70;;;;;;4933092;29;20047;-85
2022/01/08 02:09:24;;;;;;;3.08;1.60;;;16.90;53.70;;;;;;4933296;29;20028;-86
2022/01/08 02:12:06;;;;;;;3.67;1.50;;;16.90;53.70;;;;;;4933463;29;20149;-85
2022/01/08 02:14:35;;;;;;;3.60;1.70;;;16.90;53.60;;;;;;4936001;29;20478;-85
2022/01/08 02:17:04;;;;;;;2.88;1.60;;;16.90;53.50;;;;;;4938836;29;20880;-86
2022/01/08 02:19:30;;;;;;;3.35;1.55;;;16.90;53.30;;;;;;4938937;29;20113;-85
2022/01/08 02:21:59;;;;;;;5.78;1.63;;;16.90;53.30;;;;;;4936963;29;20227;-86
2022/01/08 02:24:27;;;;;;;3.17;1.48;;;16.90;53.30;;;;;;4938562;29;20035;-86
2022/01/08 02:26:53;;;;;;;2.47;1.30;;;16.90;53.20;;;;;;4938321;29;20040;-86
2022/01/08 02:29:22;;;;;;;3.75;1.30;;;16.90;53.30;;;;;;4939573;29;20059;-86
2022/01/08 02:31:59;;;;;;;2.08;1.50;;;16.90;53.30;;;;;;4938232;29;20032;-85
2022/01/08 02:34:27;;;;;;;3.92;1.65;;;16.90;53.30;;;;;;4938590;29;20032;-86
2022/01/08 02:36:53;;;;;;;4.15;1.40;;;16.80;53.20;;;;;;4938194;29;20051;-86
2022/01/08 02:39:19;;;;;;;2.63;1.30;;;16.90;53.20;;;;;;4938161;29;20035;-86
2022/01/08 02:41:46;;;;;;;2.83;1.17;;;16.90;53.10;;;;;;4939043;29;20035;-86
2022/01/08 02:44:12;;;;;;;2.50;1.30;;;16.90;53.10;;;;;;4940143;29;20087;-86
2022/01/08 02:46:41;;;;;;;1.95;1.02;;;16.90;53.20;;;;;;4939888;29;20546;-86
2022/01/08 02:49:09;;;;;;;3.47;1.30;;;16.80;53.20;;;;;;4942619;29;20051;-86
2022/01/08 02:51:35;;;;;;;2.35;1.25;;;16.80;53.20;;;;;;4943731;29;20133;-86
2022/01/08 02:54:07;;;;;;;3.03;1.27;;;16.80;53.20;;;;;;4940937;29;20032;-86
2022/01/08 02:56:36;;;;;;;3.15;1.20;;;16.80;53.30;;;;;;4934957;29;20036;-86
2022/01/08 02:59:03;;;;;;;2.05;1.27;;;16.80;53.20;;;;;;4935784;29;20102;-86
2022/01/08 03:01:28;;;;;;;3.30;1.30;;;16.80;53.20;;;;;;4936599;29;20035;-86
2022/01/08 03:03:56;;;;;;;2.35;1.10;;;16.80;53.30;;;;;;4936495;29;20075;-86
2022/01/08 03:06:22;;;;;;;3.25;1.50;;;16.80;53.30;;;;;;4935175;29;20032;-86
2022/01/08 03:08:48;;;;;;;2.33;1.15;;;16.80;53.20;;;;;;4936667;29;20023;-86
2022/01/08 03:11:13;;;;;;;3.58;1.48;;;16.80;53.20;;;;;;4935470;29;20090;-86
2022/01/08 03:13:39;;;;;;;2.70;1.25;;;16.80;53.10;;;;;;4935946;29;20040;-86
2022/01/08 03:16:06;;;;;;;2.60;1.15;;;16.70;53.00;;;;;;4935803;29;20035;-86
2022/01/08 03:18:35;;;;;;;2.47;1.10;;;16.80;53.00;;;;;;4934836;29;20110;-86
2022/01/08 03:21:12;;;;;;;3.50;1.27;;;16.70;53.00;;;;;;4935990;29;20031;-86
2022/01/08 03:23:52;;;;;;;2.97;1.20;;;16.70;53.00;;;;;;4936029;29;20023;-86
2022/01/08 03:26:20;;;;;;;2.95;1.20;;;16.70;53.10;;;;;;4935361;29;20043;-86
2022/01/08 03:28:46;;;;;;;2.97;1.27;;;16.70;53.10;;;;;;4937442;29;20035;-86
2022/01/08 03:31:13;;;;;;;3.38;1.30;;;16.70;53.10;;;;;;4935900;29;20032;-85
2022/01/08 03:33:39;;;;;;;2.75;1.17;;;16.70;53.10;;;;;;4935505;29;20216;-85
2022/01/08 03:36:06;;;;;;;3.40;1.10;;;16.70;53.10;;;;;;4933908;29;20479;-85
2022/01/08 03:38:32;;;;;;;2.95;1.20;;;16.70;53.10;;;;;;4934656;29;20047;-85
2022/01/08 03:40:58;;;;;;;2.88;1.20;;;16.70;53.10;;;;;;4934460;29;20050;-85
2022/01/08 03:43:24;;;;;;;2.17;1.08;;;16.70;53.10;;;;;;4934163;29;20391;-84
2022/01/08 03:45:51;;;;;;;1.77;0.90;;;16.70;53.20;;;;;;4953671;29;20101;-85
2022/01/08 03:48:32;;;;;;;2.72;1.00;;;16.70;53.10;;;;;;4954208;29;20039;-85
2022/01/08 03:50:58;;;;;;;2.92;1.17;;;16.60;53.10;;;;;;4953372;29;20026;-85
2022/01/08 03:53:25;;;;;;;2.88;1.20;;;16.60;53.10;;;;;;4936128;29;20027;-85
2022/01/08 03:55:53;;;;;;;3.25;1.02;;;16.60;53.10;;;;;;4953194;29;20038;-85
2022/01/08 03:58:19;;;;;;;3.30;1.13;;;16.60;53.00;;;;;;4952950;29;20047;-85
2022/01/08 04:00:47;;;;;;;2.63;1.23;;;16.60;53.00;;;;;;4953029;29;20039;-85
2022/01/08 04:03:13;;;;;;;1.80;1.02;;;16.60;53.00;;;;;;4952484;29;20113;-85
2022/01/08 04:05:39;;;;;;;2.22;1.10;;;16.60;53.00;;;;;;4952895;29;20050;-85
2022/01/08 04:08:05;;;;;;;2.33;1.00;;;16.60;53.00;;;;;;4952096;29;20047;-85
2022/01/08 04:10:30;;;;;;;2.75;1.20;;;16.60;53.00;;;;;;4951675;29;20505;-86
2022/01/08 04:13:01;;;;;;;2.13;1.13;;;16.60;53.00;;;;;;4952082;29;20463;-86
2022/01/08 04:17:54;;;;;;;2.03;0.95;;;16.60;53.10;;;;;;4951635;29;20035;-86
2022/01/08 04:20:22;;;;;;;1.85;1.10;;;16.60;52.90;;;;;;4951999;29;20106;-86
2022/01/08 04:22:50;;;;;;;2.60;1.00;;;16.70;52.90;;;;;;4951660;29;20108;-86
2022/01/08 04:25:18;;;;;;;1.67;0.93;;;16.60;52.70;;;;;;4951874;29;20028;-86
2022/01/08 04:27:45;;;;;;;2.35;0.80;;;16.60;52.60;;;;;;4952395;29;20033;-86
2022/01/08 04:30:13;;;;;;;2.25;1.00;;;16.70;52.80;;;;;;4954216;29;20038;-86
2022/01/08 04:32:39;;;;;;;3.03;1.10;;;16.70;52.80;;;;;;4956538;29;20040;-86
2022/01/08 04:35:06;;;;;;;2.60;1.20;;;16.60;52.70;;;;;;4953466;29;20050;-87
2022/01/08 04:37:31;;;;;;;1.85;0.85;;;16.70;52.70;;;;;;4952227;28;20538;-86
2022/01/08 04:39:58;;;;;;;3.70;1.60;;;16.60;52.50;;;;;;4951241;29;20047;-86
2022/01/08 04:42:24;;;;;;;2.33;0.90;;;16.70;52.50;;;;;;4951013;29;20093;-86
2022/01/08 04:44:50;;;;;;;3.47;1.00;;;16.70;52.40;;;;;;4938388;28;20063;-86
2022/01/08 04:47:15;;;;;;;3.47;1.00;;;16.70;52.20;;;;;;4931008;29;20110;-86
2022/01/08 04:49:41;;;;;;;3.50;1.20;;;16.70;52.10;;;;;;4931066;29;20055;-86
2022/01/08 04:52:07;;;;;;;3.45;1.20;;;16.70;52.00;;;;;;4932159;29;20059;-86
2022/01/08 04:54:32;;;;;;;2.75;1.10;;;16.70;52.00;;;;;;4931786;29;20035;-86
2022/01/08 04:56:58;;;;;;;2.45;0.90;;;16.70;52.00;;;;;;4930862;29;20032;-86
2022/01/08 04:59:23;;;;;;;2.78;1.10;;;16.70;52.00;;;;;;4930894;29;20118;-86
2022/01/08 05:01:49;;;;;;;2.70;1.10;;;16.70;51.90;;;;;;4931639;29;20476;-87
2022/01/08 05:04:15;;;;;;;1.63;1.10;;;16.70;51.90;;;;;;4931845;29;20036;-87
2022/01/08 05:06:41;;;;;;;2.25;1.13;;;16.70;51.80;;;;;;4931271;29;20036;-87
2022/01/08 05:09:07;;;;;;;3.13;1.00;;;16.80;52.00;;;;;;4931458;29;20031;-86
2022/01/08 05:11:33;;;;;;;3.75;1.25;;;16.80;51.90;;;;;;4931301;29;20066;-86
2022/01/08 05:13:59;;;;;;;2.33;1.02;;;17.00;51.80;;;;;;4932484;29;20056;-86
2022/01/08 05:16:27;;;;;;;3.38;1.10;;;17.10;51.50;;;;;;4932339;29;20147;-87
2022/01/08 05:18:54;;;;;;;3.15;1.27;;;17.30;51.20;;;;;;4931466;29;20184;-86
2022/01/08 05:21:25;;;;;;;3.13;1.27;;;17.40;50.90;;;;;;4932270;29;20056;-87
2022/01/08 05:23:52;;;;;;;2.65;1.00;;;17.50;50.70;;;;;;4931015;29;20431;-87
2022/01/08 05:26:18;;;;;;;1.75;1.00;;;17.60;51.50;;;;;;4932105;29;20089;-87
2022/01/08 05:28:44;;;;;;;2.13;1.02;;;17.70;50.30;;;;;;4932158;29;20168;-86
2022/01/08 05:31:18;;;;;;;2.90;1.10;;;17.80;50.10;;;;;;4932106;29;20032;-87
2022/01/08 05:33:44;;;;;;;1.85;1.00;;;17.90;49.90;;;;;;4931426;29;20039;-86
2022/01/08 05:36:10;;;;;;;2.00;0.90;;;18.00;49.90;;;;;;4931819;29;20063;-87
2022/01/08 05:38:35;;;;;;;3.20;1.35;;;18.00;49.70;;;;;;4931976;29;20059;-87
2022/01/08 05:41:02;;;;;;;3.42;0.98;;;18.10;49.70;;;;;;4931973;29;20019;-87
2022/01/08 05:43:27;;;;;;;3.20;1.02;;;18.10;49.50;;;;;;4931175;29;20531;-86
2022/01/08 05:45:53;;;;;;;2.50;0.93;;;18.10;49.50;;;;;;4930410;29;20043;-86
2022/01/08 05:48:19;;;;;;;2.90;0.98;;;18.10;49.50;;;;;;4930416;29;20112;-87
2022/01/08 05:50:45;;;;;;;2.42;0.80;;;18.10;49.50;;;;;;4933334;29;20380;-87
2022/01/08 05:53:11;;;;;;;2.60;0.90;;;18.10;49.50;;;;;;4933859;29;20035;-86
2022/01/08 05:55:38;;;;;;;2.40;0.90;;;18.10;49.50;;;;;;4933850;29;20034;-87
2022/01/08 05:58:04;;;;;;;2.67;0.95;;;18.10;49.50;;;;;;4933580;29;20024;-86
2022/01/08 06:00:30;;;;;;;2.53;0.90;;;18.10;49.50;;;;;;4934541;29;20026;-88
2022/01/08 06:02:55;;;;;;;2.58;0.90;;;18.10;49.60;;;;;;4934511;29;20055;-81
2022/01/08 06:05:21;;;;;;;2.67;1.00;;;18.10;49.70;;;;;;4934276;29;20036;-83
2022/01/08 06:07:47;;;;;;;2.25;1.00;;;18.10;49.80;;;;;;4933943;29;20054;-82
2022/01/08 06:10:13;;;;;;;1.70;0.80;;;18.10;50.00;;;;;;4934172;29;20065;-82
2022/01/08 06:12:38;;;;;;;1.65;0.63;;;18.20;50.00;;;;;;4934229;29;20837;-82
2022/01/08 06:15:10;;;;;;;2.42;0.90;;;18.20;50.00;;;;;;4934825;29;20023;-83
2022/01/08 06:17:36;;;;;;;1.88;1.13;;;18.20;49.90;;;;;;4939292;29;20148;-85
2022/01/08 06:20:02;;;;;;;3.28;1.00;;;18.20;50.00;;;;;;4939052;29;20079;-84
2022/01/08 06:22:28;;;;;;;2.05;0.73;;;18.20;50.00;;;;;;4934274;29;20514;-84
2022/01/08 06:24:53;;;;;;;2.42;0.75;;;18.20;50.00;;;;;;4933671;29;20024;-80
2022/01/08 06:27:19;;;;;;;3.25;0.85;;;18.30;50.10;;;;;;4932961;29;20919;-85
2022/01/08 06:29:44;;;;;;;3.10;0.80;;;18.30;50.00;;;;;;4933168;29;20035;-83
2022/01/08 06:32:10;;;;;;;2.25;0.90;;;18.30;50.00;;;;;;4932701;29;20035;-84
2022/01/08 06:34:37;;;;;;;1.70;0.88;;;18.30;50.00;;;;;;4933615;29;20078;-83
2022/01/08 06:37:03;;;;;;;5.65;0.90;;;18.30;50.00;;;;;;4933464;29;20031;-82
2022/01/08 06:39:28;;;;;;;3.00;0.88;;;18.30;50.00;;;;;;4933459;29;20091;-83
2022/01/08 06:41:54;;;;;;;3.45;1.00;;;18.20;50.10;;;;;;4932928;29;20032;-83
2022/01/08 06:44:19;;;;;;;3.80;0.98;;;18.20;50.00;;;;;;4933512;29;20059;-81
2022/01/08 06:46:46;;;;;;;3.15;0.90;;;18.10;50.40;;;;;;4933530;29;20038;-81
2022/01/08 06:49:12;;;;;;;2.55;0.68;;;18.10;50.90;;;;;;4933208;29;20027;-83
2022/01/08 06:51:38;;;;;;;3.10;1.25;;;18.00;51.20;;;;;;4933635;29;20024;-84
2022/01/08 06:54:04;;;;;;;3.47;1.15;;;18.00;51.10;;;;;;4933708;29;20042;-83
2022/01/08 06:56:30;;;;;;;1.67;0.80;;;18.00;51.30;;;;;;4933667;29;20027;-84
2022/01/08 06:58:55;;;;;;;2.80;0.85;;;17.90;51.40;;;;;;4933690;29;20521;-87
2022/01/08 07:01:21;;;;;;;2.75;0.90;;;17.90;51.20;;;;;;4933780;29;20066;-84
2022/01/08 07:03:48;;;;;;;3.45;1.00;;;17.90;51.30;;;;;;4934223;29;20443;-82
2022/01/08 07:06:13;;;;;;;2.38;0.80;;;17.80;51.60;;;;;;4934242;29;20026;-83
2022/01/08 07:08:40;;;;;;;2.70;1.00;;;17.80;51.50;;;;;;4933870;29;20036;-83
2022/01/08 07:11:06;;;;;;;2.80;1.17;;;17.80;51.40;;;;;;4933663;29;20047;-83
2022/01/08 07:13:31;;;;;;;3.08;1.00;;;17.70;51.50;;;;;;4934067;29;20070;-82
2022/01/08 07:15:57;;;;;;;2.90;0.90;;;17.70;51.40;;;;;;4933817;29;20032;-80
2022/01/08 07:18:24;;;;;;;2.13;0.90;;;17.70;51.60;;;;;;4933868;29;20035;-83
2022/01/08 07:20:50;;;;;;;2.60;0.90;;;17.60;51.70;;;;;;4933729;29;20035;-82
2022/01/08 07:23:16;;;;;;;2.45;0.85;;;17.60;51.70;;;;;;4916483;29;20032;-82
2022/01/08 07:25:41;;;;;;;2.75;1.10;;;17.60;51.80;;;;;;4933979;29;20090;-82
2022/01/08 07:28:08;;;;;;;2.25;0.93;;;17.50;52.00;;;;;;4933904;29;20398;-81
2022/01/08 07:30:34;;;;;;;2.67;1.00;;;17.50;52.40;;;;;;4933775;29;20028;-82
2022/01/08 07:32:59;;;;;;;2.35;0.90;;;17.50;52.60;;;;;;4933476;29;20036;-80
2022/01/08 07:35:25;;;;;;;3.13;1.00;;;17.40;52.70;;;;;;4934491;29;20027;-83
2022/01/08 07:37:52;;;;;;;3.10;1.00;;;17.40;52.90;;;;;;4934090;29;20079;-85
2022/01/08 07:40:20;;;;;;;2.55;1.20;;;17.40;52.90;;;;;;4933640;29;20055;-83
2022/01/08 07:42:46;;;;;;;3.80;1.30;;;17.40;53.00;;;;;;4935716;29;20110;-82
2022/01/08 07:45:12;;;;;;;2.60;1.10;;;17.30;52.90;;;;;;4934278;29;20052;-82
2022/01/08 07:47:38;;;;;;;3.55;1.55;;;17.30;52.90;;;;;;4935487;29;20050;-85
2022/01/08 07:50:11;;;;;;;3.03;1.30;;;17.30;53.00;;;;;;4935732;29;20054;-85
2022/01/08 07:52:37;;;;;;;;;;;17.30;52.80;;;;;;4935767;29;20035;-83
2022/01/08 07:55:05;;;;;;;4.05;1.50;;;17.20;53.10;;;;;;4936246;29;20285;-81
2022/01/08 07:57:30;;;;;;;2.38;1.17;;;17.20;52.80;;;;;;4935016;29;20032;-82
2022/01/08 07:59:56;;;;;;;3.83;1.40;;;17.20;52.80;;;;;;4936442;29;20105;-85
2022/01/08 08:02:22;;;;;;;4.25;1.30;;;17.20;52.90;;;;;;4934587;29;20028;-80
2022/01/08 08:04:51;;;;;;;3.55;1.10;;;17.10;52.80;;;;;;4917778;29;20038;-82
2022/01/08 08:07:37;;;;;;;2.67;1.30;;;17.10;53.00;;;;;;4935654;29;20114;-81
2022/01/08 08:10:10;;;;;;;2.97;1.15;;;17.10;52.80;;;;;;4940067;29;20027;-82
2022/01/08 08:12:36;;;;;;;3.10;1.20;;;17.10;52.80;;;;;;4941717;29;20055;-79
2022/01/08 08:15:03;;;;;;;4.30;1.35;;;17.10;53.10;;;;;;4942446;29;20095;-81
2022/01/08 08:17:29;;;;;;;2.58;1.45;;;17.10;53.10;;;;;;4934756;29;20112;-79
2022/01/08 08:19:55;;;;;;;3.10;1.30;;;17.10;53.20;;;;;;4934084;29;20071;-81
2022/01/08 08:22:20;;;;;;;2.90;1.30;;;17.10;53.40;;;;;;4934265;29;20042;-82
2022/01/08 08:24:46;;;;;;;4.05;1.48;;;17.10;53.60;;;;;;4934190;29;20039;-81
2022/01/08 08:27:12;;;;;;;3.97;1.40;;;17.10;53.60;;;;;;4934230;29;20048;-83
2022/01/08 08:29:40;;;;;;;6.20;1.40;;;17.10;54.50;;;;;;4933171;29;20678;-75
2022/01/08 08:32:08;;;;;;;3.50;1.30;;;17.10;53.30;;;;;;4932809;29;20126;-86
2022/01/08 08:34:34;;;;;;;3.08;1.25;;;17.10;52.80;;;;;;4932899;29;20043;-86
2022/01/08 08:36:59;;;;;;;4.38;1.30;;;17.10;52.60;;;;;;4933222;29;20060;-88
2022/01/08 08:39:26;;;;;;;2.92;1.38;;;17.10;52.50;;;;;;4932582;29;20503;-86
2022/01/08 08:41:52;;;;;;;3.50;1.25;;;17.10;52.40;;;;;;4932555;29;20032;-86
2022/01/08 08:44:17;;;;;;;5.28;1.65;;;17.10;52.30;;;;;;4932761;29;20055;-86
2022/01/08 08:46:43;;;;;;;4.57;1.30;;;17.10;52.30;;;;;;4932270;29;20072;-82
2022/01/08 08:49:09;;;;;;;4.85;1.60;;;17.10;52.10;;;;;;4932085;29;20024;-84
2022/01/08 08:51:35;;;;;;;5.25;1.60;;;17.10;52.10;;;;;;4933423;29;20756;-85
2022/01/08 08:54:01;;;;;;;5.10;1.50;;;17.10;52.00;;;;;;4932195;29;20024;-83
2022/01/08 08:56:28;;;;;;;3.53;1.33;;;17.10;52.00;;;;;;4932080;29;20495;-83
2022/01/08 08:58:54;;;;;;;7.20;1.67;;;17.10;52.30;;;;;;4932349;29;20039;-80
2022/01/08 09:01:20;;;;;;;5.38;1.73;;;17.10;52.30;;;;;;4932627;29;20114;-79
2022/01/08 09:03:45;;;;;;;9.00;1.58;;;17.10;52.10;;;;;;4934846;29;20424;-78
2022/01/08 09:06:11;;;;;;;7.97;1.63;;;17.10;52.10;;;;;;4932081;29;20028;-79
2022/01/08 09:08:37;;;;;;;5.93;1.45;;;17.10;52.10;;;;;;4932358;29;20483;-78
2022/01/08 09:11:02;;;;;;;11.32;1.90;;;17.10;52.10;;;;;;4932042;29;20031;-79
2022/01/08 09:13:28;;;;;;;5.28;1.58;;;17.10;52.20;;;;;;4932176;29;20090;-80
2022/01/08 09:15:54;;;;;;;6.25;1.70;;;17.10;52.30;;;;;;4931923;29;20028;-80
2022/01/08 09:18:19;;;;;;;6.90;2.00;;;17.10;52.40;;;;;;4931297;29;20040;-79
2022/01/08 09:20:45;;;;;;;7.00;1.77;;;17.10;52.50;;;;;;4931197;29;20024;-80
2022/01/08 09:23:11;;;;;;;7.10;1.83;;;17.10;52.60;;;;;;4931357;28;20051;-80
2022/01/08 09:25:37;;;;;;;8.23;1.70;;;17.10;52.60;;;;;;4934413;29;20062;-80
2022/01/08 09:28:05;;;;;;;10.10;1.63;;;17.10;52.70;;;;;;4935429;29;20040;-80
2022/01/08 09:30:31;;;;;;;6.07;1.75;;;17.10;52.80;;;;;;4935018;29;20491;-75
2022/01/08 09:33:05;;;;;;;13.32;2.30;;;17.10;52.90;;;;;;4934827;29;20034;-78
2022/01/08 09:35:33;;;;;;;15.82;2.40;;;17.10;53.30;;;;;;4934925;29;20028;-75
2022/01/08 09:37:59;;;;;;;16.52;2.30;;;17.10;53.40;;;;;;4935086;29;20024;-77
2022/01/08 09:40:25;;;;;;;30.08;3.05;;;17.20;53.70;;;;;;4934930;29;20475;-77
2022/01/08 09:42:51;;;;;;;26.08;2.65;;;17.10;53.90;;;;;;4934915;29;20079;-79
2022/01/08 09:45:17;;;;;;;15.73;2.33;;;17.10;54.20;;;;;;4935547;29;20143;-76
2022/01/08 09:47:42;;;;;;;22.77;2.70;;;17.20;54.20;;;;;;4935617;29;20111;-80
2022/01/08 09:50:10;;;;;;;17.70;2.40;;;17.10;54.30;;;;;;4936580;29;20027;-80
2022/01/08 09:52:37;;;;;;;16.88;2.45;;;17.10;54.40;;;;;;4937417;29;20032;-76
2022/01/08 09:55:06;;;;;;;10.75;2.50;;;17.10;54.60;;;;;;4939995;29;20067;-81
2022/01/08 09:57:38;;;;;;;21.60;2.85;;;17.10;54.70;;;;;;4941036;29;20019;-79
2022/01/08 10:00:15;;;;;;;25.63;2.72;;;17.10;54.80;;;;;;4944449;29;20096;-80
2022/01/08 10:02:44;;;;;;;21.92;2.40;;;17.10;54.70;;;;;;4940105;29;20031;-77
2022/01/08 10:05:13;;;;;;;15.60;2.58;;;17.10;54.80;;;;;;4935946;29;20024;-79
2022/01/08 10:07:40;;;;;;;14.13;2.70;;;17.10;54.90;;;;;;4935752;29;20546;-78
2022/01/08 10:10:17;;;;;;;24.90;3.05;;;17.00;54.90;;;;;;4934673;29;20142;-78
2022/01/08 10:12:52;;;;;;;12.65;2.45;;;17.00;54.90;;;;;;4935268;29;20104;-78
2022/01/08 10:18:36;;;;;;;14.82;2.88;;;17.00;54.60;;;;;;4934987;29;20037;-79
2022/01/08 10:21:14;;;;;;;12.43;2.42;;;16.90;54.80;;;;;;4933863;29;20118;-79
2022/01/08 10:23:46;;;;;;;11.73;2.35;;;16.90;54.80;;;;;;4933831;29;20230;-79
2022/01/08 10:26:14;;;;;;;10.75;2.35;;;16.80;54.80;;;;;;4932611;29;20039;-79
2022/01/08 10:28:51;;;;;;;13.20;2.28;;;16.80;54.90;;;;;;4933501;29;20035;-79
2022/01/08 10:31:23;;;;;;;18.20;3.10;;;16.80;54.80;;;;;;4935406;29;20102;-79
2022/01/08 10:33:50;;;;;;;13.52;2.42;;;16.80;54.80;;;;;;4933330;29;20498;-79
2022/01/08 10:36:26;;;;;;;12.35;2.30;;;16.80;54.90;;;;;;4932398;29;20067;-78
2022/01/08 10:39:00;;;;;;;12.68;2.45;;;16.80;54.80;;;;;;4932857;29;20028;-79
2022/01/08 10:41:28;;;;;;;14.93;2.00;;;16.80;54.80;;;;;;4933193;29;20044;-79
2022/01/08 10:44:06;;;;;;;8.98;2.42;;;16.70;54.70;;;;;;4932733;29;20066;-79
2022/01/08 10:46:33;;;;;;;8.20;2.40;;;16.70;54.70;;;;;;4933049;29;20035;-79
2022/01/08 10:48:58;;;;;;;11.32;3.40;;;16.70;54.70;;;;;;4932247;29;20082;-79
2022/01/08 10:51:26;;;;;;;10.52;2.50;;;16.70;54.60;;;;;;4931993;29;20035;-79
2022/01/08 10:54:08;;;;;;;9.63;2.50;;;16.70;54.60;;;;;;4932117;29;20487;-79
2022/01/08 10:56:42;;;;;;;8.65;2.45;;;16.70;54.40;;;;;;4932139;29;20106;-79
2022/01/08 10:59:23;;;;;;;9.45;2.50;;;16.70;54.40;;;;;;4931972;29;20369;-79
2022/01/08 11:01:50;;;;;;;7.72;2.70;;;16.70;54.30;;;;;;4931893;29;20031;-79
2022/01/08 11:04:32;;;;;;;8.43;2.10;;;16.70;54.20;;;;;;4932352;29;20024;-78
2022/01/08 11:07:03;;;;;;;6.50;2.35;;;16.70;54.30;;;;;;4932976;29;20039;-79
2022/01/08 11:09:30;;;;;;;5.03;2.10;;;16.80;54.20;;;;;;4932977;29;20031;-79
2022/01/08 11:11:58;;;;;;;5.93;2.30;;;16.70;53.90;;;;;;4932916;29;20043;-76
2022/01/08 11:17:16;;;;;;;8.95;2.25;;;16.80;54.00;;;;;;4933307;29;20038;-78
2022/01/08 11:19:46;;;;;;;6.55;2.20;;;16.80;54.00;;;;;;4933312;29;20032;-77
2022/01/08 11:22:15;;;;;;;6.80;2.15;;;16.80;54.00;;;;;;4933841;29;20043;-77
2022/01/08 11:24:47;;;;;;;5.40;2.00;;;16.80;54.90;;;;;;4933780;29;20048;-78
2022/01/08 11:27:14;;;;;;;6.88;2.13;;;16.80;53.90;;;;;;4933944;29;20043;-78
2022/01/08 11:29:42;;;;;;;6.65;2.42;;;16.90;53.90;;;;;;4932719;29;20051;-80
2022/01/08 11:32:10;;;;;;;9.68;2.28;;;16.90;53.90;;;;;;4933015;29;20035;-79
2022/01/08 11:34:41;;;;;;;6.95;2.10;;;16.90;53.90;;;;;;4933456;29;20058;-78
2022/01/08 11:37:08;;;;;;;6.57;2.25;;;16.90;53.90;;;;;;4934591;29;20027;-80
2022/01/08 11:39:36;;;;;;;5.07;2.40;;;16.90;53.90;;;;;;4936866;29;20039;-79
2022/01/08 11:42:03;;;;;;;7.75;2.47;;;16.90;54.80;;;;;;4938286;29;20028;-78
2022/01/08 11:44:31;;;;;;;6.00;2.33;;;16.90;53.90;;;;;;4934101;29;20055;-79
2022/01/08 11:46:59;;;;;;;6.65;2.40;;;16.90;53.90;;;;;;4932935;29;20039;-80
2022/01/08 11:49:25;;;;;;;5.25;2.00;;;16.90;53.80;;;;;;4933523;29;20098;-80
2022/01/08 11:52:20;;;;;;;5.00;2.15;;;16.90;53.90;;;;;;4933891;29;20122;-80
2022/01/08 11:54:47;;;;;;;7.75;2.13;;;17.00;53.80;;;;;;4932409;29;20016;-80
2022/01/08 11:57:27;;;;;;;7.65;2.90;;;17.00;53.80;;;;;;4932934;29;20034;-80
